sensor_id;sensor_type;location;lat;lon;timestamp;P1;durP1;ratioP1;P2;durP2;ratioP2
14470;SDS011;7321;50.802;4.336;2022-07-23T00:00:36;15.82;;;14.20;;
14470;SDS011;7321;50.802;4.336;2022-07-23T00:03:01;15.77;;;14.05;;
14470;SDS011;7321;50.802;4.336;2022-07-23T00:05:27;15.57;;;13.98;;
14470;SDS011;7321;50.802;4.336;2022-07-23T00:07:53;15.68;;;14.07;;
14470;SDS011;7321;50.802;4.336;2022-07-23T00:10:19;15.68;;;13.57;;
14470;SDS011;7321;50.802;4.336;2022-07-23T00:12:44;16.15;;;13.98;;
14470;SDS011;7321;50.802;4.336;2022-07-23T00:15:10;17.92;;;14.80;;
14470;SDS011;7321;50.802;4.336;2022-07-23T00:17:36;16.55;;;14.30;;
14470;SDS011;7321;50.802;4.336;2022-07-23T00:20:02;16.85;;;14.98;;
14470;SDS011;7321;50.802;4.336;2022-07-23T00:22:28;17.98;;;14.35;;
14470;SDS011;7321;50.802;4.336;2022-07-23T00:24:55;19.45;;;15.60;;
14470;SDS011;7321;50.802;4.336;2022-07-23T00:27:21;18.00;;;14.23;;
14470;SDS011;7321;50.802;4.336;2022-07-23T00:29:47;17.50;;;15.80;;
14470;SDS011;7321;50.802;4.336;2022-07-23T00:32:13;17.13;;;15.32;;
14470;SDS011;7321;50.802;4.336;2022-07-23T00:34:39;17.73;;;15.93;;
14470;SDS011;7321;50.802;4.336;2022-07-23T00:37:04;19.33;;;15.88;;
14470;SDS011;7321;50.802;4.336;2022-07-23T00:39:30;21.38;;;17.33;;
14470;SDS011;7321;50.802;4.336;2022-07-23T00:41:56;18.92;;;16.95;;
14470;SDS011;7321;50.802;4.336;2022-07-23T00:44:24;18.95;;;17.13;;
14470;SDS011;7321;50.802;4.336;2022-07-23T00:46:56;19.13;;;17.23;;
14470;SDS011;7321;50.802;4.336;2022-07-23T00:49:29;19.70;;;17.67;;
14470;SDS011;7321;50.802;4.336;2022-07-23T00:51:55;18.20;;;16.33;;
14470;SDS011;7321;50.802;4.336;2022-07-23T00:54:23;19.38;;;16.80;;
14470;SDS011;7321;50.802;4.336;2022-07-23T00:56:50;21.00;;;17.33;;
14470;SDS011;7321;50.802;4.336;2022-07-23T00:59:16;19.02;;;17.05;;
14470;SDS011;7321;50.802;4.336;2022-07-23T01:01:42;18.25;;;16.38;;
14470;SDS011;7321;50.802;4.336;2022-07-23T01:04:09;20.20;;;18.10;;
14470;SDS011;7321;50.802;4.336;2022-07-23T01:06:36;17.83;;;16.02;;
14470;SDS011;7321;50.802;4.336;2022-07-23T01:09:06;19.70;;;16.73;;
14470;SDS011;7321;50.802;4.336;2022-07-23T01:11:33;18.50;;;16.50;;
14470;SDS011;7321;50.802;4.336;2022-07-23T01:14:13;19.77;;;16.65;;
14470;SDS011;7321;50.802;4.336;2022-07-23T01:16:41;19.25;;;17.25;;
14470;SDS011;7321;50.802;4.336;2022-07-23T01:19:07;19.45;;;16.77;;
14470;SDS011;7321;50.802;4.336;2022-07-23T01:21:35;21.23;;;16.70;;
14470;SDS011;7321;50.802;4.336;2022-07-23T01:24:03;20.50;;;17.45;;
14470;SDS011;7321;50.802;4.336;2022-07-23T01:26:29;19.27;;;16.50;;
14470;SDS011;7321;50.802;4.336;2022-07-23T01:28:55;19.17;;;16.67;;
14470;SDS011;7321;50.802;4.336;2022-07-23T01:31:21;19.40;;;16.58;;
14470;SDS011;7321;50.802;4.336;2022-07-23T01:33:47;18.73;;;16.67;;
14470;SDS011;7321;50.802;4.336;2022-07-23T01:36:13;19.92;;;17.50;;
14470;SDS011;7321;50.802;4.336;2022-07-23T01:38:39;19.55;;;17.02;;
14470;SDS011;7321;50.802;4.336;2022-07-23T01:41:04;19.95;;;17.83;;
14470;SDS011;7321;50.802;4.336;2022-07-23T01:43:30;18.17;;;16.27;;
14470;SDS011;7321;50.802;4.336;2022-07-23T01:45:56;18.70;;;16.70;;
14470;SDS011;7321;50.802;4.336;2022-07-23T01:48:21;18.05;;;16.13;;
14470;SDS011;7321;50.802;4.336;2022-07-23T01:50:47;20.83;;;16.55;;
14470;SDS011;7321;50.802;4.336;2022-07-23T01:53:14;19.20;;;16.70;;
14470;SDS011;7321;50.802;4.336;2022-07-23T01:55:40;18.73;;;16.38;;
14470;SDS011;7321;50.802;4.336;2022-07-23T01:58:07;18.63;;;16.73;;
14470;SDS011;7321;50.802;4.336;2022-07-23T02:00:32;18.23;;;16.33;;
14470;SDS011;7321;50.802;4.336;2022-07-23T02:02:59;19.13;;;16.15;;
14470;SDS011;7321;50.802;4.336;2022-07-23T02:05:25;19.85;;;15.88;;
14470;SDS011;7321;50.802;4.336;2022-07-23T02:07:51;18.75;;;16.83;;
14470;SDS011;7321;50.802;4.336;2022-07-23T02:10:17;17.02;;;15.27;;
14470;SDS011;7321;50.802;4.336;2022-07-23T02:12:43;18.63;;;16.73;;
14470;SDS011;7321;50.802;4.336;2022-07-23T02:15:09;18.58;;;15.60;;
14470;SDS011;7321;50.802;4.336;2022-07-23T02:17:35;19.50;;;16.40;;
14470;SDS011;7321;50.802;4.336;2022-07-23T02:20:00;17.80;;;15.90;;
14470;SDS011;7321;50.802;4.336;2022-07-23T02:22:27;17.55;;;15.77;;
14470;SDS011;7321;50.802;4.336;2022-07-23T02:24:52;18.40;;;15.57;;
14470;SDS011;7321;50.802;4.336;2022-07-23T02:27:18;16.35;;;14.73;;
14470;SDS011;7321;50.802;4.336;2022-07-23T02:29:44;16.63;;;14.93;;
14470;SDS011;7321;50.802;4.336;2022-07-23T02:32:10;16.77;;;14.95;;
14470;SDS011;7321;50.802;4.336;2022-07-23T02:34:36;17.38;;;15.48;;
14470;SDS011;7321;50.802;4.336;2022-07-23T02:37:02;18.58;;;14.48;;
14470;SDS011;7321;50.802;4.336;2022-07-23T02:39:27;16.60;;;14.95;;
14470;SDS011;7321;50.802;4.336;2022-07-23T02:41:53;16.85;;;15.02;;
14470;SDS011;7321;50.802;4.336;2022-07-23T02:44:19;16.27;;;14.68;;
14470;SDS011;7321;50.802;4.336;2022-07-23T02:46:47;17.30;;;15.40;;
14470;SDS011;7321;50.802;4.336;2022-07-23T02:49:12;16.02;;;14.40;;
14470;SDS011;7321;50.802;4.336;2022-07-23T02:51:38;17.15;;;14.75;;
14470;SDS011;7321;50.802;4.336;2022-07-23T02:54:04;19.42;;;15.50;;
14470;SDS011;7321;50.802;4.336;2022-07-23T02:56:30;16.70;;;15.07;;
14470;SDS011;7321;50.802;4.336;2022-07-23T02:58:55;17.38;;;15.25;;
14470;SDS011;7321;50.802;4.336;2022-07-23T03:01:21;18.27;;;15.50;;
14470;SDS011;7321;50.802;4.336;2022-07-23T03:03:47;17.50;;;15.63;;
14470;SDS011;7321;50.802;4.336;2022-07-23T03:06:13;16.52;;;14.82;;
14470;SDS011;7321;50.802;4.336;2022-07-23T03:08:39;17.60;;;15.43;;
14470;SDS011;7321;50.802;4.336;2022-07-23T03:11:04;16.60;;;14.75;;
14470;SDS011;7321;50.802;4.336;2022-07-23T03:13:36;19.45;;;15.27;;
14470;SDS011;7321;50.802;4.336;2022-07-23T03:16:02;16.13;;;14.40;;
14470;SDS011;7321;50.802;4.336;2022-07-23T03:18:28;15.05;;;13.55;;
14470;SDS011;7321;50.802;4.336;2022-07-23T03:20:54;16.90;;;15.20;;
14470;SDS011;7321;50.802;4.336;2022-07-23T03:23:20;17.92;;;16.10;;
14470;SDS011;7321;50.802;4.336;2022-07-23T03:25:45;17.17;;;15.48;;
14470;SDS011;7321;50.802;4.336;2022-07-23T03:28:14;18.73;;;15.50;;
14470;SDS011;7321;50.802;4.336;2022-07-23T03:30:41;17.35;;;15.55;;
14470;SDS011;7321;50.802;4.336;2022-07-23T03:33:08;17.13;;;15.40;;
14470;SDS011;7321;50.802;4.336;2022-07-23T03:35:34;18.50;;;16.60;;
14470;SDS011;7321;50.802;4.336;2022-07-23T03:37:59;18.48;;;16.13;;
14470;SDS011;7321;50.802;4.336;2022-07-23T03:40:25;20.92;;;17.27;;
14470;SDS011;7321;50.802;4.336;2022-07-23T03:42:51;18.05;;;15.77;;
14470;SDS011;7321;50.802;4.336;2022-07-23T03:45:17;17.83;;;16.02;;
14470;SDS011;7321;50.802;4.336;2022-07-23T03:47:42;18.33;;;16.40;;
14470;SDS011;7321;50.802;4.336;2022-07-23T03:50:09;19.10;;;16.40;;
14470;SDS011;7321;50.802;4.336;2022-07-23T03:52:35;18.15;;;15.98;;
14470;SDS011;7321;50.802;4.336;2022-07-23T03:55:01;20.33;;;15.93;;
14470;SDS011;7321;50.802;4.336;2022-07-23T03:57:28;18.13;;;16.20;;
14470;SDS011;7321;50.802;4.336;2022-07-23T03:59:54;18.70;;;16.65;;
14470;SDS011;7321;50.802;4.336;2022-07-23T04:02:20;19.55;;;15.15;;
14470;SDS011;7321;50.802;4.336;2022-07-23T04:04:45;18.27;;;16.13;;
14470;SDS011;7321;50.802;4.336;2022-07-23T04:07:12;17.35;;;15.25;;
14470;SDS011;7321;50.802;4.336;2022-07-23T04:09:38;18.58;;;15.80;;
14470;SDS011;7321;50.802;4.336;2022-07-23T04:12:06;17.52;;;15.73;;
14470;SDS011;7321;50.802;4.336;2022-07-23T04:14:32;16.35;;;14.73;;
14470;SDS011;7321;50.802;4.336;2022-07-23T04:16:58;17.88;;;15.98;;
14470;SDS011;7321;50.802;4.336;2022-07-23T04:19:24;16.73;;;15.02;;
14470;SDS011;7321;50.802;4.336;2022-07-23T04:21:50;17.13;;;15.32;;
14470;SDS011;7321;50.802;4.336;2022-07-23T04:24:16;16.17;;;14.57;;
14470;SDS011;7321;50.802;4.336;2022-07-23T04:26:42;16.85;;;15.23;;
14470;SDS011;7321;50.802;4.336;2022-07-23T04:29:09;16.48;;;14.85;;
14470;SDS011;7321;50.802;4.336;2022-07-23T04:31:34;16.75;;;14.60;;
14470;SDS011;7321;50.802;4.336;2022-07-23T04:34:00;17.88;;;15.13;;
14470;SDS011;7321;50.802;4.336;2022-07-23T04:36:26;17.98;;;14.65;;
14470;SDS011;7321;50.802;4.336;2022-07-23T04:38:52;17.15;;;14.77;;
14470;SDS011;7321;50.802;4.336;2022-07-23T04:41:18;16.88;;;15.18;;
14470;SDS011;7321;50.802;4.336;2022-07-23T04:43:43;16.98;;;14.77;;
14470;SDS011;7321;50.802;4.336;2022-07-23T04:46:09;17.23;;;15.05;;
14470;SDS011;7321;50.802;4.336;2022-07-23T04:48:36;17.10;;;15.30;;
14470;SDS011;7321;50.802;4.336;2022-07-23T04:51:01;17.98;;;15.07;;
14470;SDS011;7321;50.802;4.336;2022-07-23T04:53:28;16.92;;;15.18;;
14470;SDS011;7321;50.802;4.336;2022-07-23T04:55:54;15.80;;;14.25;;
14470;SDS011;7321;50.802;4.336;2022-07-23T04:58:20;17.63;;;14.75;;
14470;SDS011;7321;50.802;4.336;2022-07-23T05:00:46;18.75;;;14.77;;
14470;SDS011;7321;50.802;4.336;2022-07-23T05:03:12;16.95;;;13.68;;
14470;SDS011;7321;50.802;4.336;2022-07-23T05:05:37;16.42;;;14.30;;
14470;SDS011;7321;50.802;4.336;2022-07-23T05:08:03;17.67;;;15.77;;
14470;SDS011;7321;50.802;4.336;2022-07-23T05:10:29;16.52;;;14.73;;
14470;SDS011;7321;50.802;4.336;2022-07-23T05:12:55;15.50;;;14.00;;
14470;SDS011;7321;50.802;4.336;2022-07-23T05:15:21;15.88;;;14.23;;
14470;SDS011;7321;50.802;4.336;2022-07-23T05:17:46;16.17;;;14.40;;
14470;SDS011;7321;50.802;4.336;2022-07-23T05:20:15;15.98;;;14.27;;
14470;SDS011;7321;50.802;4.336;2022-07-23T05:22:41;15.15;;;13.48;;
14470;SDS011;7321;50.802;4.336;2022-07-23T05:25:07;14.77;;;13.35;;
14470;SDS011;7321;50.802;4.336;2022-07-23T05:27:33;17.02;;;14.93;;
14470;SDS011;7321;50.802;4.336;2022-07-23T05:29:59;16.77;;;14.68;;
14470;SDS011;7321;50.802;4.336;2022-07-23T05:32:25;15.77;;;14.20;;
14470;SDS011;7321;50.802;4.336;2022-07-23T05:34:50;16.10;;;14.23;;
14470;SDS011;7321;50.802;4.336;2022-07-23T05:37:16;15.95;;;14.27;;
14470;SDS011;7321;50.802;4.336;2022-07-23T05:39:42;16.02;;;14.43;;
14470;SDS011;7321;50.802;4.336;2022-07-23T05:42:08;15.88;;;14.18;;
14470;SDS011;7321;50.802;4.336;2022-07-23T05:44:34;16.13;;;14.43;;
14470;SDS011;7321;50.802;4.336;2022-07-23T05:46:59;16.05;;;14.38;;
14470;SDS011;7321;50.802;4.336;2022-07-23T05:49:25;15.93;;;14.02;;
14470;SDS011;7321;50.802;4.336;2022-07-23T05:51:51;14.88;;;13.32;;
14470;SDS011;7321;50.802;4.336;2022-07-23T05:54:17;18.83;;;14.05;;
14470;SDS011;7321;50.802;4.336;2022-07-23T05:56:42;15.15;;;13.63;;
14470;SDS011;7321;50.802;4.336;2022-07-23T05:59:08;16.02;;;13.98;;
14470;SDS011;7321;50.802;4.336;2022-07-23T06:01:34;17.27;;;13.32;;
14470;SDS011;7321;50.802;4.336;2022-07-23T06:04:00;15.85;;;12.90;;
14470;SDS011;7321;50.802;4.336;2022-07-23T06:06:25;15.35;;;13.85;;
14470;SDS011;7321;50.802;4.336;2022-07-23T06:08:51;16.70;;;13.73;;
14470;SDS011;7321;50.802;4.336;2022-07-23T06:11:17;16.55;;;14.30;;
14470;SDS011;7321;50.802;4.336;2022-07-23T06:13:45;14.80;;;13.20;;
14470;SDS011;7321;50.802;4.336;2022-07-23T06:16:11;13.50;;;12.18;;
14470;SDS011;7321;50.802;4.336;2022-07-23T06:18:37;13.82;;;12.20;;
14470;SDS011;7321;50.802;4.336;2022-07-23T06:21:03;15.88;;;12.77;;
14470;SDS011;7321;50.802;4.336;2022-07-23T06:23:28;13.07;;;11.65;;
14470;SDS011;7321;50.802;4.336;2022-07-23T06:25:54;14.50;;;11.80;;
14470;SDS011;7321;50.802;4.336;2022-07-23T06:28:20;13.32;;;11.77;;
14470;SDS011;7321;50.802;4.336;2022-07-23T06:30:46;15.63;;;12.07;;
14470;SDS011;7321;50.802;4.336;2022-07-23T06:33:11;13.98;;;12.63;;
14470;SDS011;7321;50.802;4.336;2022-07-23T06:35:37;13.82;;;12.02;;
14470;SDS011;7321;50.802;4.336;2022-07-23T06:38:03;13.40;;;11.68;;
14470;SDS011;7321;50.802;4.336;2022-07-23T06:40:28;12.93;;;11.73;;
14470;SDS011;7321;50.802;4.336;2022-07-23T06:42:54;13.52;;;11.57;;
14470;SDS011;7321;50.802;4.336;2022-07-23T06:45:20;14.38;;;12.27;;
14470;SDS011;7321;50.802;4.336;2022-07-23T06:47:46;12.98;;;11.73;;
14470;SDS011;7321;50.802;4.336;2022-07-23T06:50:11;13.65;;;11.27;;
14470;SDS011;7321;50.802;4.336;2022-07-23T06:52:37;12.27;;;11.00;;
14470;SDS011;7321;50.802;4.336;2022-07-23T06:55:03;13.60;;;11.40;;
14470;SDS011;7321;50.802;4.336;2022-07-23T06:57:29;11.90;;;10.77;;
14470;SDS011;7321;50.802;4.336;2022-07-23T06:59:55;12.38;;;10.70;;
14470;SDS011;7321;50.802;4.336;2022-07-23T07:02:21;13.60;;;11.80;;
14470;SDS011;7321;50.802;4.336;2022-07-23T07:04:47;12.80;;;11.25;;
14470;SDS011;7321;50.802;4.336;2022-07-23T07:07:12;12.70;;;11.20;;
14470;SDS011;7321;50.802;4.336;2022-07-23T07:09:38;13.23;;;11.82;;
14470;SDS011;7321;50.802;4.336;2022-07-23T07:12:04;12.82;;;11.55;;
14470;SDS011;7321;50.802;4.336;2022-07-23T07:14:30;12.82;;;11.38;;
14470;SDS011;7321;50.802;4.336;2022-07-23T07:16:56;14.40;;;11.77;;
14470;SDS011;7321;50.802;4.336;2022-07-23T07:19:21;13.23;;;11.40;;
14470;SDS011;7321;50.802;4.336;2022-07-23T07:21:47;12.88;;;11.38;;
14470;SDS011;7321;50.802;4.336;2022-07-23T07:24:13;12.57;;;11.38;;
14470;SDS011;7321;50.802;4.336;2022-07-23T07:26:39;12.55;;;11.23;;
14470;SDS011;7321;50.802;4.336;2022-07-23T07:29:05;14.38;;;11.60;;
14470;SDS011;7321;50.802;4.336;2022-07-23T07:31:31;12.00;;;10.85;;
14470;SDS011;7321;50.802;4.336;2022-07-23T07:33:57;14.00;;;12.50;;
14470;SDS011;7321;50.802;4.336;2022-07-23T07:36:23;11.60;;;10.50;;
14470;SDS011;7321;50.802;4.336;2022-07-23T07:38:49;11.90;;;10.68;;
14470;SDS011;7321;50.802;4.336;2022-07-23T07:41:15;12.43;;;10.63;;
14470;SDS011;7321;50.802;4.336;2022-07-23T07:43:41;13.82;;;11.23;;
14470;SDS011;7321;50.802;4.336;2022-07-23T07:46:07;11.63;;;10.45;;
14470;SDS011;7321;50.802;4.336;2022-07-23T07:48:38;13.88;;;11.95;;
14470;SDS011;7321;50.802;4.336;2022-07-23T07:51:04;15.20;;;12.60;;
14470;SDS011;7321;50.802;4.336;2022-07-23T07:53:30;12.45;;;10.45;;
14470;SDS011;7321;50.802;4.336;2022-07-23T07:55:55;13.30;;;10.73;;
14470;SDS011;7321;50.802;4.336;2022-07-23T07:58:21;10.88;;;9.77;;
14470;SDS011;7321;50.802;4.336;2022-07-23T08:00:47;10.77;;;9.35;;
14470;SDS011;7321;50.802;4.336;2022-07-23T08:03:13;11.15;;;10.05;;
14470;SDS011;7321;50.802;4.336;2022-07-23T08:05:39;11.73;;;10.60;;
14470;SDS011;7321;50.802;4.336;2022-07-23T08:08:04;11.95;;;9.88;;
14470;SDS011;7321;50.802;4.336;2022-07-23T08:10:30;10.90;;;9.80;;
14470;SDS011;7321;50.802;4.336;2022-07-23T08:12:57;9.88;;;8.82;;
14470;SDS011;7321;50.802;4.336;2022-07-23T08:15:24;10.68;;;9.65;;
14470;SDS011;7321;50.802;4.336;2022-07-23T08:17:51;10.68;;;9.38;;
14470;SDS011;7321;50.802;4.336;2022-07-23T08:20:18;9.95;;;8.85;;
14470;SDS011;7321;50.802;4.336;2022-07-23T08:25:17;11.25;;;8.77;;
14470;SDS011;7321;50.802;4.336;2022-07-23T08:27:46;11.20;;;9.68;;
14470;SDS011;7321;50.802;4.336;2022-07-23T08:30:12;12.05;;;10.30;;
14470;SDS011;7321;50.802;4.336;2022-07-23T08:32:57;10.60;;;9.07;;
14470;SDS011;7321;50.802;4.336;2022-07-23T08:35:31;10.48;;;9.38;;
14470;SDS011;7321;50.802;4.336;2022-07-23T08:38:00;12.45;;;9.55;;
14470;SDS011;7321;50.802;4.336;2022-07-23T08:40:29;10.48;;;9.35;;
14470;SDS011;7321;50.802;4.336;2022-07-23T08:42:56;10.10;;;9.10;;
14470;SDS011;7321;50.802;4.336;2022-07-23T08:45:23;9.75;;;8.70;;
14470;SDS011;7321;50.802;4.336;2022-07-23T08:47:51;10.10;;;9.13;;
14470;SDS011;7321;50.802;4.336;2022-07-23T08:50:18;11.32;;;8.68;;
14470;SDS011;7321;50.802;4.336;2022-07-23T08:52:45;9.38;;;8.45;;
14470;SDS011;7321;50.802;4.336;2022-07-23T08:55:13;10.27;;;9.27;;
14470;SDS011;7321;50.802;4.336;2022-07-23T08:57:41;9.52;;;8.55;;
14470;SDS011;7321;50.802;4.336;2022-07-23T09:00:06;11.27;;;9.18;;
14470;SDS011;7321;50.802;4.336;2022-07-23T09:02:39;11.13;;;9.75;;
14470;SDS011;7321;50.802;4.336;2022-07-23T09:05:07;9.38;;;8.50;;
14470;SDS011;7321;50.802;4.336;2022-07-23T09:07:37;9.63;;;8.63;;
14470;SDS011;7321;50.802;4.336;2022-07-23T09:10:23;9.73;;;8.13;;
14470;SDS011;7321;50.802;4.336;2022-07-23T09:12:49;10.35;;;8.98;;
14470;SDS011;7321;50.802;4.336;2022-07-23T09:15:14;9.90;;;8.93;;
14470;SDS011;7321;50.802;4.336;2022-07-23T09:17:41;9.70;;;8.10;;
14470;SDS011;7321;50.802;4.336;2022-07-23T09:20:08;8.82;;;7.55;;
14470;SDS011;7321;50.802;4.336;2022-07-23T09:22:36;8.95;;;7.38;;
14470;SDS011;7321;50.802;4.336;2022-07-23T09:25:06;9.10;;;7.95;;
14470;SDS011;7321;50.802;4.336;2022-07-23T09:30:19;9.05;;;8.15;;
14470;SDS011;7321;50.802;4.336;2022-07-23T09:38:13;9.32;;;8.20;;
14470;SDS011;7321;50.802;4.336;2022-07-23T09:40:39;9.18;;;7.07;;
14470;SDS011;7321;50.802;4.336;2022-07-23T09:43:05;7.60;;;6.80;;
14470;SDS011;7321;50.802;4.336;2022-07-23T09:45:31;8.80;;;6.90;;
14470;SDS011;7321;50.802;4.336;2022-07-23T09:48:13;11.68;;;8.35;;
14470;SDS011;7321;50.802;4.336;2022-07-23T09:50:41;11.10;;;7.95;;
14470;SDS011;7321;50.802;4.336;2022-07-23T09:53:08;9.07;;;8.18;;
14470;SDS011;7321;50.802;4.336;2022-07-23T09:55:34;10.10;;;7.70;;
14470;SDS011;7321;50.802;4.336;2022-07-23T09:58:07;8.98;;;7.25;;
14470;SDS011;7321;50.802;4.336;2022-07-23T10:00:39;9.95;;;7.70;;
14470;SDS011;7321;50.802;4.336;2022-07-23T10:03:05;9.23;;;7.70;;
14470;SDS011;7321;50.802;4.336;2022-07-23T10:05:33;8.48;;;7.65;;
14470;SDS011;7321;50.802;4.336;2022-07-23T10:08:01;8.85;;;7.22;;
14470;SDS011;7321;50.802;4.336;2022-07-23T10:10:27;8.20;;;7.47;;
14470;SDS011;7321;50.802;4.336;2022-07-23T10:12:55;7.60;;;6.75;;
14470;SDS011;7321;50.802;4.336;2022-07-23T10:15:41;9.35;;;7.63;;
14470;SDS011;7321;50.802;4.336;2022-07-23T10:18:08;11.43;;;7.78;;
14470;SDS011;7321;50.802;4.336;2022-07-23T10:20:36;13.52;;;12.23;;
14470;SDS011;7321;50.802;4.336;2022-07-23T10:42:50;8.52;;;6.20;;
14470;SDS011;7321;50.802;4.336;2022-07-23T10:45:25;6.93;;;6.28;;
14470;SDS011;7321;50.802;4.336;2022-07-23T10:47:54;6.97;;;6.25;;
14470;SDS011;7321;50.802;4.336;2022-07-23T10:50:21;6.18;;;5.30;;
14470;SDS011;7321;50.802;4.336;2022-07-23T10:55:50;8.90;;;6.88;;
14470;SDS011;7321;50.802;4.336;2022-07-23T10:58:18;7.68;;;5.75;;
14470;SDS011;7321;50.802;4.336;2022-07-23T11:00:45;7.43;;;6.70;;
14470;SDS011;7321;50.802;4.336;2022-07-23T11:03:27;7.60;;;6.15;;
14470;SDS011;7321;50.802;4.336;2022-07-23T11:05:58;7.93;;;5.97;;
14470;SDS011;7321;50.802;4.336;2022-07-23T11:08:24;8.20;;;6.28;;
14470;SDS011;7321;50.802;4.336;2022-07-23T11:10:51;6.40;;;5.78;;
14470;SDS011;7321;50.802;4.336;2022-07-23T11:24:03;7.93;;;7.13;;
14470;SDS011;7321;50.802;4.336;2022-07-23T11:32:01;7.30;;;6.13;;
14470;SDS011;7321;50.802;4.336;2022-07-23T11:34:33;8.10;;;5.57;;
14470;SDS011;7321;50.802;4.336;2022-07-23T11:37:01;6.50;;;5.93;;
14470;SDS011;7321;50.802;4.336;2022-07-23T11:39:29;10.43;;;6.28;;
14470;SDS011;7321;50.802;4.336;2022-07-23T11:41:56;7.85;;;5.68;;
14470;SDS011;7321;50.802;4.336;2022-07-23T11:44:26;9.82;;;8.18;;
14470;SDS011;7321;50.802;4.336;2022-07-23T11:46:56;8.65;;;7.60;;
14470;SDS011;7321;50.802;4.336;2022-07-23T11:49:27;7.82;;;7.13;;
14470;SDS011;7321;50.802;4.336;2022-07-23T11:52:14;8.30;;;7.50;;
14470;SDS011;7321;50.802;4.336;2022-07-23T11:54:50;9.13;;;6.80;;
14470;SDS011;7321;50.802;4.336;2022-07-23T11:57:28;10.63;;;8.82;;
14470;SDS011;7321;50.802;4.336;2022-07-23T11:59:57;10.45;;;8.07;;
14470;SDS011;7321;50.802;4.336;2022-07-23T12:02:44;8.40;;;7.50;;
14470;SDS011;7321;50.802;4.336;2022-07-23T12:05:13;7.93;;;7.25;;
14470;SDS011;7321;50.802;4.336;2022-07-23T12:07:41;9.68;;;8.45;;
14470;SDS011;7321;50.802;4.336;2022-07-23T12:12:42;14.00;;;9.43;;
14470;SDS011;7321;50.802;4.336;2022-07-23T12:15:12;8.00;;;7.05;;
14470;SDS011;7321;50.802;4.336;2022-07-23T12:17:46;8.60;;;7.72;;
14470;SDS011;7321;50.802;4.336;2022-07-23T12:20:25;8.25;;;6.65;;
14470;SDS011;7321;50.802;4.336;2022-07-23T12:22:57;7.45;;;5.65;;
14470;SDS011;7321;50.802;4.336;2022-07-23T12:25:26;6.72;;;6.13;;
14470;SDS011;7321;50.802;4.336;2022-07-23T12:28:02;6.40;;;5.75;;
14470;SDS011;7321;50.802;4.336;2022-07-23T12:30:41;11.07;;;7.13;;
14470;SDS011;7321;50.802;4.336;2022-07-23T12:33:11;5.20;;;4.80;;
14470;SDS011;7321;50.802;4.336;2022-07-23T12:35:43;8.27;;;7.50;;
14470;SDS011;7321;50.802;4.336;2022-07-23T12:38:12;6.97;;;6.28;;
14470;SDS011;7321;50.802;4.336;2022-07-23T12:48:33;7.35;;;6.25;;
14470;SDS011;7321;50.802;4.336;2022-07-23T12:51:04;8.40;;;7.07;;
14470;SDS011;7321;50.802;4.336;2022-07-23T12:58:51;9.60;;;7.00;;
14470;SDS011;7321;50.802;4.336;2022-07-23T13:06:32;9.77;;;8.38;;
14470;SDS011;7321;50.802;4.336;2022-07-23T13:08:59;10.40;;;8.70;;
14470;SDS011;7321;50.802;4.336;2022-07-23T13:11:26;6.70;;;5.10;;
14470;SDS011;7321;50.802;4.336;2022-07-23T13:13:52;5.65;;;5.15;;
14470;SDS011;7321;50.802;4.336;2022-07-23T13:16:18;5.85;;;5.35;;
14470;SDS011;7321;50.802;4.336;2022-07-23T13:18:44;5.45;;;4.93;;
14470;SDS011;7321;50.802;4.336;2022-07-23T13:21:10;5.75;;;4.72;;
14470;SDS011;7321;50.802;4.336;2022-07-23T13:23:35;5.35;;;4.85;;
14470;SDS011;7321;50.802;4.336;2022-07-23T13:26:01;5.30;;;4.90;;
14470;SDS011;7321;50.802;4.336;2022-07-23T13:28:28;5.65;;;5.10;;
14470;SDS011;7321;50.802;4.336;2022-07-23T13:30:54;5.50;;;5.00;;
14470;SDS011;7321;50.802;4.336;2022-07-23T13:33:21;6.20;;;5.07;;
14470;SDS011;7321;50.802;4.336;2022-07-23T13:35:49;6.38;;;4.97;;
14470;SDS011;7321;50.802;4.336;2022-07-23T13:38:16;4.80;;;4.45;;
14470;SDS011;7321;50.802;4.336;2022-07-23T13:40:43;7.10;;;4.80;;
14470;SDS011;7321;50.802;4.336;2022-07-23T13:43:12;4.80;;;4.30;;
14470;SDS011;7321;50.802;4.336;2022-07-23T13:45:39;7.00;;;5.03;;
14470;SDS011;7321;50.802;4.336;2022-07-23T13:48:08;5.28;;;4.88;;
14470;SDS011;7321;50.802;4.336;2022-07-23T13:50:34;4.85;;;4.45;;
14470;SDS011;7321;50.802;4.336;2022-07-23T13:53:04;7.68;;;5.70;;
14470;SDS011;7321;50.802;4.336;2022-07-23T13:55:33;4.95;;;4.45;;
14470;SDS011;7321;50.802;4.336;2022-07-23T13:57:59;5.43;;;4.82;;
14470;SDS011;7321;50.802;4.336;2022-07-23T14:00:25;5.57;;;5.07;;
14470;SDS011;7321;50.802;4.336;2022-07-23T14:02:52;4.95;;;4.43;;
14470;SDS011;7321;50.802;4.336;2022-07-23T14:05:18;5.88;;;5.32;;
14470;SDS011;7321;50.802;4.336;2022-07-23T14:07:44;5.82;;;5.00;;
14470;SDS011;7321;50.802;4.336;2022-07-23T14:10:12;8.30;;;5.45;;
14470;SDS011;7321;50.802;4.336;2022-07-23T14:12:38;5.40;;;4.78;;
14470;SDS011;7321;50.802;4.336;2022-07-23T14:15:07;6.40;;;4.78;;
14470;SDS011;7321;50.802;4.336;2022-07-23T14:17:35;5.57;;;5.07;;
14470;SDS011;7321;50.802;4.336;2022-07-23T14:20:02;5.15;;;4.75;;
14470;SDS011;7321;50.802;4.336;2022-07-23T14:22:29;7.07;;;5.13;;
14470;SDS011;7321;50.802;4.336;2022-07-23T14:24:55;5.40;;;5.00;;
14470;SDS011;7321;50.802;4.336;2022-07-23T14:27:22;5.68;;;5.18;;
14470;SDS011;7321;50.802;4.336;2022-07-23T14:29:48;6.95;;;5.05;;
14470;SDS011;7321;50.802;4.336;2022-07-23T14:32:14;5.53;;;4.88;;
14470;SDS011;7321;50.802;4.336;2022-07-23T14:34:40;6.57;;;5.07;;
14470;SDS011;7321;50.802;4.336;2022-07-23T14:37:05;5.72;;;5.32;;
14470;SDS011;7321;50.802;4.336;2022-07-23T14:39:31;5.45;;;4.95;;
14470;SDS011;7321;50.802;4.336;2022-07-23T14:41:57;5.20;;;4.70;;
14470;SDS011;7321;50.802;4.336;2022-07-23T14:44:23;5.38;;;4.88;;
14470;SDS011;7321;50.802;4.336;2022-07-23T14:46:49;6.07;;;5.57;;
14470;SDS011;7321;50.802;4.336;2022-07-23T14:49:15;5.75;;;5.20;;
14470;SDS011;7321;50.802;4.336;2022-07-23T14:51:41;6.05;;;5.28;;
14470;SDS011;7321;50.802;4.336;2022-07-23T14:54:07;6.60;;;5.28;;
14470;SDS011;7321;50.802;4.336;2022-07-23T14:56:33;5.57;;;5.07;;
14470;SDS011;7321;50.802;4.336;2022-07-23T14:59:01;5.50;;;5.00;;
14470;SDS011;7321;50.802;4.336;2022-07-23T15:01:28;6.15;;;5.15;;
14470;SDS011;7321;50.802;4.336;2022-07-23T15:03:53;5.82;;;5.13;;
14470;SDS011;7321;50.802;4.336;2022-07-23T15:06:19;6.00;;;5.47;;
14470;SDS011;7321;50.802;4.336;2022-07-23T15:08:45;5.75;;;5.22;;
14470;SDS011;7321;50.802;4.336;2022-07-23T15:11:10;6.00;;;5.50;;
14470;SDS011;7321;50.802;4.336;2022-07-23T15:13:37;5.95;;;5.35;;
14470;SDS011;7321;50.802;4.336;2022-07-23T15:16:03;7.40;;;5.45;;
14470;SDS011;7321;50.802;4.336;2022-07-23T15:18:30;5.55;;;5.05;;
14470;SDS011;7321;50.802;4.336;2022-07-23T15:20:56;5.43;;;4.90;;
14470;SDS011;7321;50.802;4.336;2022-07-23T15:23:22;6.00;;;5.50;;
14470;SDS011;7321;50.802;4.336;2022-07-23T15:25:48;5.80;;;5.40;;
14470;SDS011;7321;50.802;4.336;2022-07-23T15:28:14;6.03;;;5.10;;
14470;SDS011;7321;50.802;4.336;2022-07-23T15:30:40;6.00;;;5.35;;
14470;SDS011;7321;50.802;4.336;2022-07-23T15:33:06;6.00;;;5.40;;
14470;SDS011;7321;50.802;4.336;2022-07-23T15:35:32;7.60;;;5.25;;
14470;SDS011;7321;50.802;4.336;2022-07-23T15:37:58;6.03;;;4.85;;
14470;SDS011;7321;50.802;4.336;2022-07-23T15:40:23;5.50;;;5.00;;
14470;SDS011;7321;50.802;4.336;2022-07-23T15:42:50;5.30;;;4.90;;
14470;SDS011;7321;50.802;4.336;2022-07-23T15:45:16;5.75;;;5.25;;
14470;SDS011;7321;50.802;4.336;2022-07-23T15:47:42;5.65;;;5.15;;
14470;SDS011;7321;50.802;4.336;2022-07-23T15:50:08;5.70;;;5.20;;
14470;SDS011;7321;50.802;4.336;2022-07-23T15:52:34;6.50;;;5.63;;
14470;SDS011;7321;50.802;4.336;2022-07-23T15:55:01;6.10;;;5.50;;